Time;durP1;ratioP1;P1;durP2;ratioP2;P2;SDS_P1;SDS_P2;PMS_P1;PMS_P2;Temp;Humidity;BMP_temperature;BMP_pressure;BME280_temperature;BME280_humidity;BME280_pressure;Samples;Min_cycle;Max_cycle;Signal;HPM_P1;HPM_P2
2023/03/15 00:01:26;;;;;;;3.22;1.40;;;;;;;4.49;83.47;101149.94;5055687;28;20130;-68
2023/03/15 00:03:53;;;;;;;4.60;1.73;;;;;;;4.55;83.89;101150.22;5054940;28;20040;-69
2023/03/15 00:06:19;;;;;;;2.83;1.65;;;;;;;4.67;83.95;101160.28;5040434;28;20029;-68
2023/03/15 00:08:46;;;;;;;4.28;1.70;;;;;;;4.63;83.95;101172.34;5040347;28;20021;-68
2023/03/15 00:11:13;;;;;;;4.43;1.90;;;;;;;4.54;83.98;101158.91;5059143;28;20032;-69
2023/03/15 00:13:39;;;;;;;4.10;2.05;;;;;;;4.55;83.37;101141.47;5071891;28;20375;-70
2023/03/15 00:16:05;;;;;;;5.32;2.00;;;;;;;4.56;83.64;101152.00;5075629;28;20131;-70
2023/03/15 00:18:31;;;;;;;2.83;1.90;;;;;;;4.59;83.05;101152.13;5075849;28;20106;-70
2023/03/15 00:20:57;;;;;;;5.18;1.95;;;;;;;4.56;83.93;101146.75;5057705;28;20032;-70
2023/03/15 00:23:22;;;;;;;4.55;2.15;;;;;;;4.58;83.31;101138.94;5075593;28;20029;-70
2023/03/15 00:25:50;;;;;;;5.50;2.40;;;;;;;4.60;83.71;101148.66;5075475;28;20074;-70
2023/03/15 00:28:16;;;;;;;4.05;2.50;;;;;;;4.65;83.68;101156.69;5075472;28;20519;-70
2023/03/15 00:30:42;;;;;;;4.50;2.40;;;;;;;4.65;83.92;101160.19;5075487;28;20017;-70
2023/03/15 00:33:08;;;;;;;3.40;2.40;;;;;;;4.64;83.49;101166.28;5057498;28;20020;-70
2023/03/15 00:35:38;;;;;;;2.50;2.00;;;;;;;4.70;83.69;101155.16;5075381;28;20090;-70
2023/03/15 00:38:03;;;;;;;6.25;2.00;;;;;;;4.74;82.98;101154.44;5075141;28;20029;-70
2023/03/15 00:40:29;;;;;;;3.92;2.00;;;;;;;4.66;83.15;101154.13;5075277;28;20025;-70
2023/03/15 00:42:56;;;;;;;4.72;2.05;;;;;;;4.48;83.83;101156.91;5075282;28;20078;-70
2023/03/15 00:45:22;;;;;;;4.80;1.63;;;;;;;4.39;85.31;101155.66;5075140;28;20051;-70
2023/03/15 00:47:49;;;;;;;2.42;1.75;;;;;;;4.27;85.93;101159.53;5075267;28;20466;-69
2023/03/15 00:50:14;;;;;;;3.92;1.90;;;;;;;4.16;86.66;101152.09;5075165;28;20103;-70
2023/03/15 00:52:41;;;;;;;6.18;2.05;;;;;;;4.09;86.66;101143.09;5075098;28;20450;-69
2023/03/15 00:55:14;;;;;;;5.20;1.80;;;;;;;4.07;87.79;101147.38;5074903;28;20027;-69
2023/03/15 00:57:41;;;;;;;3.63;1.90;;;;;;;4.12;87.82;101152.81;5074921;28;20024;-69
2023/03/15 01:00:16;;;;;;;3.67;1.88;;;;;;;4.09;86.97;101155.28;5074929;28;20016;-69
2023/03/15 01:02:42;;;;;;;3.22;1.77;;;;;;;4.03;88.27;101157.66;5075158;28;20020;-69
2023/03/15 01:05:09;;;;;;;3.75;1.92;;;;;;;3.99;87.97;101154.91;5074787;28;20081;-69
2023/03/15 01:07:34;;;;;;;3.53;1.80;;;;;;;4.04;88.83;101164.66;5074500;28;20462;-71
2023/03/15 01:10:01;;;;;;;4.57;2.05;;;;;;;4.13;87.69;101162.44;5074740;28;20034;-69
2023/03/15 01:12:28;;;;;;;2.70;1.73;;;;;;;4.21;87.93;101159.31;5074725;28;20381;-69
2023/03/15 01:14:53;;;;;;;4.70;1.88;;;;;;;4.30;87.53;101156.16;5074258;28;20425;-69
2023/03/15 01:17:19;;;;;;;4.20;1.90;;;;;;;4.41;87.56;101162.75;5073727;28;20047;-70
2023/03/15 01:19:44;;;;;;;3.83;2.00;;;;;;;4.51;87.13;101164.00;5074548;28;20563;-70
2023/03/15 01:22:10;;;;;;;4.88;2.05;;;;;;;4.57;87.21;101161.63;5074483;28;20490;-70
2023/03/15 01:24:35;;;;;;;3.92;2.10;;;;;;;4.57;87.57;101164.22;5074420;28;20474;-68
2023/03/15 01:27:00;;;;;;;4.38;2.08;;;;;;;4.57;87.01;101176.44;5074554;28;20029;-70
2023/03/15 01:29:26;;;;;;;3.88;1.88;;;;;;;4.55;87.17;101176.38;5074268;28;20397;-69
2023/03/15 01:31:51;;;;;;;8.07;2.40;;;;;;;4.57;87.92;101179.94;5074504;28;20474;-70
2023/03/15 01:34:17;;;;;;;4.85;2.50;;;;;;;4.52;87.16;101174.53;5074235;28;20065;-70
2023/03/15 01:36:42;;;;;;;5.97;2.60;;;;;;;4.47;87.68;101180.41;5074240;28;20486;-70
2023/03/15 01:39:07;;;;;;;5.88;3.15;;;;;;;4.46;88.15;101182.13;5073879;28;20082;-70
2023/03/15 01:41:33;;;;;;;7.63;3.45;;;;;;;4.49;88.24;101181.34;5073951;28;20028;-70
2023/03/15 01:43:58;;;;;;;5.80;3.75;;;;;;;4.51;88.46;101193.69;5073866;28;20051;-70
2023/03/15 01:46:26;;;;;;;6.63;4.25;;;;;;;4.52;88.61;101184.09;5073176;28;20068;-70
2023/03/15 01:49:11;;;;;;;8.93;5.25;;;;;;;4.45;87.75;101184.66;5073967;28;20029;-70
2023/03/15 01:51:57;;;;;;;7.93;5.13;;;;;;;4.42;88.42;101188.06;5074003;28;20036;-70
2023/03/15 01:54:44;;;;;;;6.95;4.93;;;;;;;4.40;88.07;101191.44;5074126;28;20036;-71
2023/03/15 01:57:15;;;;;;;8.43;5.38;;;;;;;4.33;88.50;101194.66;5073886;28;20082;-71
2023/03/15 01:59:55;;;;;;;8.13;5.35;;;;;;;4.33;88.44;101203.41;5074023;28;20036;-72
2023/03/15 02:02:23;;;;;;;8.38;4.78;;;;;;;4.38;88.95;101204.47;5073783;28;20040;-71
2023/03/15 02:04:58;;;;;;;9.68;5.30;;;;;;;4.43;88.44;101202.94;5055669;28;20037;-71
2023/03/15 02:07:26;;;;;;;9.02;5.60;;;;;;;4.48;88.22;101198.78;5073435;28;20031;-71
2023/03/15 02:10:02;;;;;;;11.93;6.60;;;;;;;4.50;88.70;101212.81;5073622;28;20057;-71
2023/03/15 02:12:31;;;;;;;9.70;6.70;;;;;;;4.52;88.11;101215.50;5073298;28;20439;-70
2023/03/15 02:14:59;;;;;;;11.35;6.70;;;;;;;4.50;88.17;101214.56;5073234;28;20047;-70
2023/03/15 02:17:34;;;;;;;10.27;7.00;;;;;;;4.52;88.37;101225.97;5073491;28;20028;-70
2023/03/15 02:20:26;;;;;;;8.75;6.82;;;;;;;4.54;89.14;101226.94;5073451;28;20024;-70
2023/03/15 02:23:02;;;;;;;8.77;6.63;;;;;;;4.54;88.34;101234.78;5073564;28;20037;-70
2023/03/15 02:26:02;;;;;;;5.90;4.20;;;;;;;4.56;88.82;101229.59;5073365;28;20028;-70
2023/03/15 02:28:28;;;;;;;5.40;3.47;;;;;;;4.56;87.83;101247.94;5024494;28;20371;-70
2023/03/15 02:30:54;;;;;;;5.82;3.80;;;;;;;4.52;87.31;101244.28;5073191;28;20059;-71
2023/03/15 02:33:44;;;;;;;6.78;4.45;;;;;;;4.51;87.98;101235.53;5073189;28;20039;-70
2023/03/15 02:36:21;;;;;;;8.25;4.93;;;;;;;4.56;88.22;101232.22;5061285;28;20047;-70
2023/03/15 02:38:48;;;;;;;7.22;4.80;;;;;;;4.60;87.39;101245.50;5072966;28;20029;-70
2023/03/15 02:41:18;;;;;;;7.15;5.40;;;;;;;4.61;87.88;101235.91;5073380;28;20029;-70
2023/03/15 02:43:45;;;;;;;7.63;5.60;;;;;;;4.64;88.04;101236.06;5073357;28;20028;-70
2023/03/15 02:46:11;;;;;;;8.60;5.65;;;;;;;4.69;88.07;101232.78;5073131;28;20382;-70
2023/03/15 02:48:40;;;;;;;8.63;6.10;;;;;;;4.72;87.61;101238.16;5072944;28;20031;-70
2023/03/15 02:51:05;;;;;;;11.68;7.68;;;;;;;4.78;87.42;101242.72;5072970;28;20036;-70
2023/03/15 02:53:30;;;;;;;9.82;6.90;;;;;;;4.84;86.94;101243.00;5073231;28;20416;-69
2023/03/15 02:55:56;;;;;;;9.63;6.72;;;;;;;4.88;87.08;101243.97;5073155;28;20040;-69
2023/03/15 02:58:22;;;;;;;8.95;6.70;;;;;;;4.83;86.77;101245.53;5072946;28;20539;-69
2023/03/15 03:00:48;;;;;;;10.80;6.95;;;;;;;4.82;86.67;101246.38;5072781;28;20043;-69
2023/03/15 03:03:13;;;;;;;9.77;6.82;;;;;;;4.82;87.08;101254.22;5072938;28;20060;-69
2023/03/15 03:05:38;;;;;;;10.70;7.22;;;;;;;4.82;86.58;101260.34;5072865;28;20073;-69
2023/03/15 03:08:04;;;;;;;10.90;7.88;;;;;;;4.80;86.49;101262.03;5072581;28;20358;-68
2023/03/15 03:10:30;;;;;;;9.70;7.82;;;;;;;4.81;86.72;101262.91;5073012;28;20063;-68
2023/03/15 03:12:55;;;;;;;10.45;8.27;;;;;;;4.77;86.47;101267.13;5072803;28;20063;-69
2023/03/15 03:15:21;;;;;;;10.43;7.47;;;;;;;4.78;86.81;101277.66;5051318;28;20452;-68
2023/03/15 03:17:46;;;;;;;10.75;8.02;;;;;;;4.77;86.84;101280.22;5051596;28;20477;-69
2023/03/15 03:20:12;;;;;;;9.13;6.65;;;;;;;4.80;86.73;101284.66;5052712;28;20025;-69
2023/03/15 03:22:39;;;;;;;8.93;6.60;;;;;;;4.74;86.73;101296.69;5053882;28;20391;-69
2023/03/15 03:25:08;;;;;;;7.68;6.05;;;;;;;4.73;86.33;101294.00;5054399;28;20025;-69
2023/03/15 03:27:35;;;;;;;10.60;6.30;;;;;;;4.68;85.96;101303.41;5053139;28;20078;-69
2023/03/15 03:30:03;;;;;;;9.00;6.03;;;;;;;4.63;86.05;101308.44;5051299;28;20426;-69
2023/03/15 03:32:28;;;;;;;9.02;6.30;;;;;;;4.57;85.51;101305.56;5052640;28;20501;-68
2023/03/15 03:34:54;;;;;;;8.85;6.47;;;;;;;4.51;85.89;101310.53;5052755;28;20104;-68
2023/03/15 03:37:20;;;;;;;8.18;5.97;;;;;;;4.48;86.83;101315.63;5052439;28;20094;-69
2023/03/15 03:39:46;;;;;;;9.32;6.30;;;;;;;4.44;85.04;101318.94;5053898;28;20032;-68
2023/03/15 03:42:11;;;;;;;8.93;6.45;;;;;;;4.37;85.61;101316.88;5056461;28;20022;-68
2023/03/15 03:44:37;;;;;;;7.30;5.78;;;;;;;4.34;85.50;101322.91;5056489;28;20021;-69
2023/03/15 03:47:02;;;;;;;8.85;6.80;;;;;;;4.36;85.02;101330.81;5056315;28;20037;-68
2023/03/15 03:49:28;;;;;;;7.85;6.30;;;;;;;4.36;86.00;101334.31;5056552;28;20120;-68
2023/03/15 03:51:53;;;;;;;8.88;6.30;;;;;;;4.31;85.36;101340.19;5054903;28;20040;-69
2023/03/15 03:54:22;;;;;;;7.70;5.90;;;;;;;4.27;85.63;101333.91;5055055;28;20025;-68
2023/03/15 03:56:47;;;;;;;8.05;5.88;;;;;;;4.25;85.34;101339.09;5056131;28;20111;-69
2023/03/15 03:59:13;;;;;;;9.80;5.70;;;;;;;4.24;84.82;101339.91;5055999;28;20485;-68
2023/03/15 04:01:39;;;;;;;7.93;5.90;;;;;;;4.15;84.81;101347.34;5054761;28;20078;-68
2023/03/15 04:04:04;;;;;;;7.20;6.22;;;;;;;4.10;84.68;101342.72;5056004;28;20139;-69
2023/03/15 04:06:30;;;;;;;8.13;5.68;;;;;;;4.12;85.10;101354.19;5055842;28;20025;-68
2023/03/15 04:08:55;;;;;;;8.40;6.30;;;;;;;4.15;85.26;101354.28;5055658;28;20032;-69
2023/03/15 04:11:25;;;;;;;7.43;5.63;;;;;;;4.17;84.96;101357.88;5055963;28;20025;-68
2023/03/15 04:13:52;;;;;;;7.22;5.63;;;;;;;4.16;85.21;101356.09;5060084;28;20045;-68
2023/03/15 04:16:18;;;;;;;6.88;5.53;;;;;;;4.16;84.13;101371.78;5075931;28;20033;-68
2023/03/15 04:18:43;;;;;;;6.30;4.88;;;;;;;4.21;85.73;101378.13;5075960;28;20567;-68
2023/03/15 04:21:09;;;;;;;8.93;6.57;;;;;;;4.22;84.14;101385.13;5075697;28;20020;-67
2023/03/15 04:23:36;;;;;;;7.70;6.18;;;;;;;4.15;83.54;101391.78;5075882;28;20036;-68
2023/03/15 04:26:02;;;;;;;9.68;6.65;;;;;;;4.08;84.77;101387.13;5075448;28;20070;-68
2023/03/15 04:28:29;;;;;;;8.40;6.43;;;;;;;4.06;84.47;101395.72;5075496;28;20474;-68
2023/03/15 04:30:57;;;;;;;7.65;6.43;;;;;;;4.03;84.47;101395.59;5075353;28;20033;-67
2023/03/15 04:33:23;;;;;;;7.68;6.45;;;;;;;4.06;84.50;101393.09;5075372;28;20234;-67
2023/03/15 04:35:51;;;;;;;8.57;7.20;;;;;;;4.04;84.73;101398.28;5075394;28;20031;-67
2023/03/15 04:38:16;;;;;;;10.05;7.32;;;;;;;4.01;83.64;101404.25;5075504;28;20401;-68
2023/03/15 04:40:42;;;;;;;9.75;7.18;;;;;;;4.03;83.32;101404.34;5075321;28;20029;-67
2023/03/15 04:43:07;;;;;;;9.98;7.00;;;;;;;3.95;84.24;101405.69;5075479;28;20024;-67
2023/03/15 04:45:33;;;;;;;8.35;6.53;;;;;;;3.89;84.45;101397.56;5075172;28;20393;-67
2023/03/15 04:48:00;;;;;;;8.18;6.82;;;;;;;3.82;83.59;101411.19;5075039;28;20036;-68
2023/03/15 04:50:26;;;;;;;9.00;6.40;;;;;;;3.83;84.65;101406.00;5075003;28;20025;-67
2023/03/15 04:52:51;;;;;;;9.27;7.10;;;;;;;3.80;83.97;101405.88;5075297;28;20020;-67
2023/03/15 04:55:17;;;;;;;9.25;7.05;;;;;;;3.81;84.37;101412.88;5075079;28;20025;-67
2023/03/15 04:57:42;;;;;;;9.50;6.78;;;;;;;3.79;84.60;101414.53;5075017;28;20060;-67
2023/03/15 05:00:10;;;;;;;8.25;6.80;;;;;;;3.73;84.36;101417.75;5074792;28;20504;-67
2023/03/15 05:02:40;;;;;;;8.40;6.70;;;;;;;3.76;85.00;101424.84;5074696;28;20032;-67
2023/03/15 05:05:07;;;;;;;8.93;6.63;;;;;;;3.79;84.22;101430.22;5057466;28;20454;-67
2023/03/15 05:07:34;;;;;;;9.80;6.85;;;;;;;3.80;84.25;101442.47;5056874;28;20440;-67
2023/03/15 05:10:00;;;;;;;8.80;6.80;;;;;;;3.75;84.40;101436.13;5075038;28;20032;-68
2023/03/15 05:12:26;;;;;;;8.15;6.57;;;;;;;3.69;83.69;101444.56;5074843;28;20036;-67
2023/03/15 05:14:51;;;;;;;9.55;6.85;;;;;;;3.62;84.44;101442.47;5074649;28;20105;-67
2023/03/15 05:17:17;;;;;;;10.07;6.85;;;;;;;3.62;84.88;101449.44;5074494;28;20020;-67
2023/03/15 05:19:42;;;;;;;7.75;6.07;;;;;;;3.65;84.50;101447.88;5074502;28;20029;-67
2023/03/15 05:22:08;;;;;;;9.38;7.35;;;;;;;3.66;84.55;101443.53;5074515;28;20036;-66
2023/03/15 05:24:33;;;;;;;10.50;6.28;;;;;;;3.67;84.36;101450.53;5074730;28;20502;-67
2023/03/15 05:26:59;;;;;;;11.05;6.43;;;;;;;3.64;84.64;101451.31;5074390;28;20351;-66
2023/03/15 05:29:25;;;;;;;8.95;6.32;;;;;;;3.59;84.19;101455.38;5074224;28;20069;-66
2023/03/15 05:31:51;;;;;;;9.32;7.03;;;;;;;3.52;84.68;101455.94;5074487;28;20116;-67
2023/03/15 05:34:17;;;;;;;8.25;6.55;;;;;;;3.51;85.21;101456.72;5056223;28;20163;-67
2023/03/15 05:36:43;;;;;;;9.70;6.85;;;;;;;3.55;84.31;101456.06;5074245;28;20056;-66
2023/03/15 05:39:08;;;;;;;8.93;6.65;;;;;;;3.58;84.86;101463.16;5073861;28;20028;-66
2023/03/15 05:41:34;;;;;;;7.40;6.00;;;;;;;3.56;84.41;101462.22;5074172;28;20063;-66
2023/03/15 05:43:59;;;;;;;10.07;6.85;;;;;;;3.56;84.88;101464.81;5056199;28;20117;-67
2023/03/15 05:46:24;;;;;;;8.80;6.65;;;;;;;3.54;84.50;101480.41;5073873;28;20393;-66
2023/03/15 05:48:50;;;;;;;9.98;6.32;;;;;;;3.55;84.76;101474.34;5073931;28;20035;-67
2023/03/15 05:51:15;;;;;;;8.93;6.13;;;;;;;3.65;84.54;101479.22;5073759;28;20024;-67
2023/03/15 05:53:41;;;;;;;9.85;6.75;;;;;;;3.65;84.32;101476.59;5055884;28;20078;-66
2023/03/15 05:56:07;;;;;;;10.98;6.68;;;;;;;3.65;84.17;101481.84;5073745;28;20482;-67
2023/03/15 05:58:33;;;;;;;8.98;6.32;;;;;;;3.67;84.29;101480.19;5073853;28;20036;-66
2023/03/15 06:01:00;;;;;;;7.85;5.85;;;;;;;3.68;84.06;101482.00;5073759;28;20477;-66
2023/03/15 06:03:26;;;;;;;11.07;6.85;;;;;;;3.69;83.51;101485.50;5073070;28;20029;-67
2023/03/15 06:05:51;;;;;;;9.02;6.72;;;;;;;3.67;83.97;101497.56;5073693;28;20028;-67
2023/03/15 06:08:17;;;;;;;10.05;6.88;;;;;;;3.70;84.02;101500.34;5073543;28;20020;-67
2023/03/15 06:10:42;;;;;;;9.73;6.90;;;;;;;3.71;84.15;101503.03;5073831;28;20374;-66
2023/03/15 06:13:08;;;;;;;9.73;6.47;;;;;;;3.80;84.57;101519.97;5073489;28;20424;-68
2023/03/15 06:15:33;;;;;;;11.25;7.25;;;;;;;3.79;83.03;101518.19;5073196;28;20060;-67
2023/03/15 06:17:59;;;;;;;11.80;7.13;;;;;;;3.83;84.17;101520.16;5073468;28;20029;-67
2023/03/15 06:20:24;;;;;;;11.48;7.32;;;;;;;3.84;83.40;101525.44;5073333;28;20025;-67
2023/03/15 06:22:49;;;;;;;9.98;6.88;;;;;;;3.84;83.34;101517.59;5073356;28;20025;-67
2023/03/15 06:25:15;;;;;;;10.35;7.13;;;;;;;3.86;84.26;101526.41;5073356;28;20032;-67
2023/03/15 06:27:40;;;;;;;9.98;7.25;;;;;;;3.96;84.38;101531.25;5073200;28;20028;-68
2023/03/15 06:30:06;;;;;;;10.13;7.03;;;;;;;4.04;83.94;101530.75;5073188;28;20143;-67
2023/03/15 06:32:32;;;;;;;8.88;6.68;;;;;;;4.00;83.19;101541.03;5073388;28;20025;-67
2023/03/15 06:34:57;;;;;;;10.75;7.30;;;;;;;4.04;83.13;101546.44;5070294;28;20028;-66
2023/03/15 06:37:23;;;;;;;8.93;7.05;;;;;;;4.06;83.81;101558.75;5054699;28;20150;-67
2023/03/15 06:39:49;;;;;;;9.32;7.28;;;;;;;4.08;83.22;101566.69;5055515;28;20025;-67
2023/03/15 06:42:16;;;;;;;9.25;7.03;;;;;;;4.10;83.76;101562.41;5053172;28;20113;-67
2023/03/15 06:44:42;;;;;;;10.30;7.03;;;;;;;4.07;83.22;101563.19;5035150;28;20029;-67
2023/03/15 06:47:09;;;;;;;9.90;7.18;;;;;;;4.08;84.47;101564.06;5053018;28;20029;-66
2023/03/15 06:49:35;;;;;;;9.82;7.07;;;;;;;4.13;84.25;101573.91;5053129;28;20025;-67
2023/03/15 06:52:00;;;;;;;9.93;6.95;;;;;;;4.29;84.82;101578.19;5052885;28;20021;-67
2023/03/15 06:54:26;;;;;;;10.77;7.10;;;;;;;4.49;84.33;101573.88;5053130;28;20159;-67
2023/03/15 06:56:51;;;;;;;12.88;7.20;;;;;;;4.68;84.63;101586.09;5035164;28;20382;-67
2023/03/15 06:59:17;;;;;;;14.23;6.78;;;;;;;4.81;84.93;101585.84;5052792;28;20037;-67
2023/03/15 07:01:42;;;;;;;10.25;6.95;;;;;;;5.01;84.72;101592.88;5052755;28;20032;-68
2023/03/15 07:04:08;;;;;;;8.93;6.78;;;;;;;5.21;83.83;101593.75;5052834;28;20487;-68
2023/03/15 07:06:34;;;;;;;10.98;6.78;;;;;;;5.34;83.14;101600.44;5053071;28;20040;-68
2023/03/15 07:09:00;;;;;;;10.50;6.13;;;;;;;5.31;82.50;101602.94;5052578;28;20029;-68
2023/03/15 07:11:26;;;;;;;11.07;6.95;;;;;;;5.19;82.51;101610.25;5052703;28;20067;-68
2023/03/15 07:13:51;;;;;;;14.50;6.97;;;;;;;5.09;82.23;101611.53;5052486;28;20053;-68
2023/03/15 07:16:16;;;;;;;11.40;6.70;;;;;;;5.05;82.79;101617.47;5055689;28;20524;-68
2023/03/15 07:18:42;;;;;;;10.15;7.07;;;;;;;5.09;82.89;101627.25;5056864;28;20037;-68
2023/03/15 07:21:07;;;;;;;9.68;6.88;;;;;;;5.11;82.98;101629.97;5056696;28;20095;-68
2023/03/15 07:23:33;;;;;;;9.52;6.90;;;;;;;5.08;83.24;101635.97;5056715;28;20047;-67
2023/03/15 07:25:59;;;;;;;9.30;6.68;;;;;;;5.08;83.62;101635.97;5056743;28;20025;-68
2023/03/15 07:28:26;;;;;;;8.65;6.70;;;;;;;5.14;83.68;101635.31;5056821;28;20408;-68
2023/03/15 07:31:11;;;;;;;9.98;6.85;;;;;;;5.19;83.98;101645.22;5056776;28;20378;-68
2023/03/15 07:33:37;;;;;;;9.52;6.80;;;;;;;5.20;83.85;101649.63;5056934;28;20111;-68
2023/03/15 07:36:04;;;;;;;12.80;7.28;;;;;;;5.26;84.37;101654.22;5038617;28;20119;-68
2023/03/15 07:38:31;;;;;;;10.32;6.85;;;;;;;5.34;83.94;101654.59;5056558;28;20053;-68
2023/03/15 07:40:57;;;;;;;12.23;7.03;;;;;;;5.51;83.84;101661.47;5056401;28;20032;-68
2023/03/15 07:43:23;;;;;;;12.75;6.85;;;;;;;5.59;83.01;101659.19;5056345;28;20036;-69
2023/03/15 07:45:49;;;;;;;11.32;6.45;;;;;;;5.62;82.53;101661.97;5056286;28;20036;-68
2023/03/15 07:48:15;;;;;;;8.43;6.30;;;;;;;5.65;82.32;101668.25;5056523;28;20178;-68
2023/03/15 07:50:41;;;;;;;10.65;6.75;;;;;;;5.65;82.51;101669.94;5056240;28;20474;-68
2023/03/15 07:53:07;;;;;;;8.95;6.10;;;;;;;5.66;82.65;101672.66;5056188;28;20021;-68
2023/03/15 07:55:34;;;;;;;10.68;6.50;;;;;;;5.63;82.18;101675.13;5038174;28;20014;-68
2023/03/15 07:57:59;;;;;;;12.07;6.18;;;;;;;5.84;82.33;101671.66;5056091;28;20086;-68
2023/03/15 08:00:25;;;;;;;9.57;5.97;;;;;;;6.20;82.40;101675.84;5055966;28;20028;-69
2023/03/15 08:02:51;;;;;;;10.32;6.35;;;;;;;6.63;81.44;101677.59;5056036;28;20021;-69
2023/03/15 08:05:19;;;;;;;10.23;5.60;;;;;;;7.05;80.75;101688.00;5055870;28;20032;-69
2023/03/15 08:07:46;;;;;;;9.23;5.57;;;;;;;7.50;78.84;101687.97;5055773;28;20104;-68
2023/03/15 08:10:13;;;;;;;10.27;6.00;;;;;;;7.81;78.07;101702.22;5056071;28;20029;-69
2023/03/15 08:12:41;;;;;;;9.00;5.72;;;;;;;8.01;76.05;101704.72;5055773;28;20027;-69
2023/03/15 08:15:11;;;;;;;8.35;5.60;;;;;;;8.33;75.57;101704.00;5055568;28;20033;-69
2023/03/15 08:17:37;;;;;;;9.10;4.90;;;;;;;8.60;74.39;101714.59;5055391;28;20417;-69
2023/03/15 08:20:04;;;;;;;8.30;4.88;;;;;;;8.77;71.69;101718.66;5055599;28;20029;-69
2023/03/15 08:22:30;;;;;;;7.55;4.72;;;;;;;8.98;73.00;101723.72;5055845;28;20068;-69
2023/03/15 08:24:56;;;;;;;7.45;4.75;;;;;;;9.30;73.84;101719.44;5055378;28;20439;-69
2023/03/15 08:27:23;;;;;;;8.40;5.28;;;;;;;9.51;70.18;101722.72;5055426;28;20051;-70
2023/03/15 08:29:48;;;;;;;6.65;4.28;;;;;;;9.83;69.34;101733.28;5055382;28;20108;-70
2023/03/15 08:32:16;;;;;;;9.50;4.60;;;;;;;10.17;68.35;101737.75;5055437;28;20382;-69
2023/03/15 08:34:41;;;;;;;6.45;4.53;;;;;;;10.51;67.88;101741.31;5055398;28;20021;-70
2023/03/15 08:37:09;;;;;;;9.30;3.90;;;;;;;10.59;65.47;101734.47;5055405;28;20074;-69
2023/03/15 08:39:35;;;;;;;7.72;3.65;;;;;;;10.76;64.77;101746.34;5055408;28;20021;-69
2023/03/15 08:42:00;;;;;;;6.75;3.30;;;;;;;10.99;65.98;101743.34;5055327;28;20021;-69
2023/03/15 08:44:26;;;;;;;7.72;3.50;;;;;;;11.16;63.51;101746.38;5055644;28;20021;-68
2023/03/15 08:46:51;;;;;;;7.90;3.22;;;;;;;11.39;61.22;101738.94;5055873;28;20053;-69
2023/03/15 08:49:16;;;;;;;4.60;2.78;;;;;;;11.42;60.63;101746.97;5055136;28;20098;-70
2023/03/15 08:51:42;;;;;;;7.05;3.20;;;;;;;11.30;59.51;101744.94;5055173;28;20021;-69
2023/03/15 08:54:07;;;;;;;7.25;2.80;;;;;;;11.56;60.72;101748.13;5054998;28;20100;-70
2023/03/15 08:56:32;;;;;;;7.60;3.10;;;;;;;11.68;58.33;101747.50;5055245;28;20035;-70
2023/03/15 08:58:58;;;;;;;7.90;3.20;;;;;;;11.87;60.65;101751.47;5054925;28;20478;-71
2023/03/15 09:01:24;;;;;;;6.00;3.35;;;;;;;11.94;60.19;101756.00;5054848;28;20064;-70
2023/03/15 09:03:50;;;;;;;7.35;3.15;;;;;;;12.05;60.11;101764.19;5055182;28;20029;-69
2023/03/15 09:06:15;;;;;;;5.80;2.85;;;;;;;12.35;61.40;101758.56;5055663;28;20104;-69
2023/03/15 09:08:41;;;;;;;8.20;3.05;;;;;;;12.50;59.73;101751.78;5057403;28;20187;-69
2023/03/15 09:11:06;;;;;;;5.93;2.90;;;;;;;12.49;57.14;101760.56;5057053;28;20029;-69
2023/03/15 09:13:32;;;;;;;7.60;3.00;;;;;;;12.66;56.83;101762.63;5055478;28;20036;-68
2023/03/15 09:15:57;;;;;;;5.70;3.05;;;;;;;12.70;55.13;101761.81;5054484;28;20045;-69
2023/03/15 09:18:24;;;;;;;7.70;3.25;;;;;;;12.87;53.51;101759.44;5054690;28;20037;-69
2023/03/15 09:20:49;;;;;;;7.95;3.30;;;;;;;13.13;57.76;101755.44;5054812;28;20044;-68
2023/03/15 09:23:15;;;;;;;9.20;2.80;;;;;;;13.44;54.81;101755.88;5054438;28;20080;-68
2023/03/15 09:25:40;;;;;;;8.27;2.70;;;;;;;13.52;52.52;101759.53;5054683;28;20021;-68
2023/03/15 09:28:08;;;;;;;7.70;2.78;;;;;;;13.42;50.47;101755.88;5054559;28;20479;-69
2023/03/15 09:30:35;;;;;;;8.70;3.17;;;;;;;13.82;54.37;101756.38;5036294;28;20490;-68
2023/03/15 09:33:00;;;;;;;7.65;2.95;;;;;;;13.83;49.76;101763.47;5054530;28;20033;-68
2023/03/15 09:35:26;;;;;;;6.30;2.70;;;;;;;14.00;52.56;101761.94;5054348;28;20032;-68
2023/03/15 09:37:51;;;;;;;7.97;2.88;;;;;;;14.38;48.19;101763.19;5052681;28;20530;-68
2023/03/15 09:40:20;;;;;;;9.38;3.03;;;;;;;14.73;50.16;101760.88;5054157;28;20032;-68
2023/03/15 09:42:55;;;;;;;5.45;2.22;;;;;;;14.56;49.86;101763.41;5052486;28;20029;-68
2023/03/15 09:45:40;;;;;;;7.65;2.67;;;;;;;14.55;50.51;101763.38;5036195;28;20033;-69
2023/03/15 09:48:14;;;;;;;7.50;2.70;;;;;;;14.67;47.79;101761.72;5053973;28;20461;-68
2023/03/15 09:50:49;;;;;;;8.45;2.65;;;;;;;14.81;47.47;101766.25;5036725;28;20032;-68
2023/03/15 09:53:23;;;;;;;6.82;2.95;;;;;;;14.63;47.10;101762.56;5037360;28;20028;-68
2023/03/15 09:55:50;;;;;;;9.27;2.60;;;;;;;14.23;46.05;101771.91;5056383;28;20028;-68
2023/03/15 09:58:25;;;;;;;11.75;2.97;;;;;;;13.57;47.82;101772.88;5055535;28;20021;-67
2023/03/15 10:00:59;;;;;;;7.75;2.72;;;;;;;13.25;49.63;101773.34;5053999;28;20116;-66
2023/03/15 10:03:31;;;;;;;10.48;2.53;;;;;;;13.66;48.88;101765.03;5053802;28;20103;-66
2023/03/15 10:06:01;;;;;;;7.40;2.60;;;;;;;13.68;44.45;101776.56;5035831;28;20390;-66
2023/03/15 10:08:27;;;;;;;5.97;2.45;;;;;;;13.72;46.72;101773.97;5053447;28;20025;-67
2023/03/15 10:11:03;;;;;;;8.07;2.60;;;;;;;13.78;47.41;101774.03;5053400;28;20373;-68
2023/03/15 10:13:37;;;;;;;12.10;2.80;;;;;;;14.12;46.63;101760.25;5053474;28;20167;-67
2023/03/15 10:16:36;;;;;;;6.78;2.92;;;;;;;13.94;44.96;101777.78;5053276;28;20052;-68
2023/03/15 10:19:13;;;;;;;8.43;2.80;;;;;;;13.47;44.48;101767.44;5053284;28;20052;-67
2023/03/15 10:21:50;;;;;;;7.07;2.80;;;;;;;13.36;46.57;101778.78;5053255;28;20037;-66
2023/03/15 10:24:27;;;;;;;10.25;2.78;;;;;;;13.40;45.65;101778.84;5053268;28;20029;-67
2023/03/15 10:26:52;;;;;;;6.90;2.65;;;;;;;13.72;46.11;101773.97;5053136;28;20021;-68
2023/03/15 10:29:22;;;;;;;6.55;2.60;;;;;;;13.63;44.77;101775.63;5053439;28;20029;-67
2023/03/15 10:31:48;;;;;;;7.93;2.25;;;;;;;13.23;44.29;101775.06;5052948;28;20070;-67
2023/03/15 10:34:15;;;;;;;5.88;2.40;;;;;;;13.13;45.31;101779.31;5035424;28;20044;-67
2023/03/15 10:36:46;;;;;;;9.00;2.75;;;;;;;13.23;45.32;101775.06;5053212;28;20044;-67
2023/03/15 10:39:11;;;;;;;7.25;2.70;;;;;;;13.27;44.35;101780.47;5052862;28;20479;-66
2023/03/15 10:41:45;;;;;;;11.70;2.70;;;;;;;12.98;44.59;101782.63;5053219;28;20025;-66
2023/03/15 10:44:15;;;;;;;5.55;2.80;;;;;;;13.06;46.18;101788.06;5053111;28;20064;-66
2023/03/15 10:46:40;;;;;;;7.50;2.70;;;;;;;13.18;46.25;101788.22;5035372;28;20474;-65
2023/03/15 10:49:14;;;;;;;5.32;2.55;;;;;;;13.55;47.51;101791.47;5052861;28;20047;-66
2023/03/15 10:51:46;;;;;;;12.77;2.50;;;;;;;13.65;43.75;101796.00;5052765;28;20021;-66
2023/03/15 10:54:17;;;;;;;10.30;2.80;;;;;;;13.65;44.44;101797.78;5052853;28;20371;-65
2023/03/15 10:56:48;;;;;;;5.68;2.40;;;;;;;13.54;42.72;101800.31;5052853;28;20029;-66
2023/03/15 10:59:20;;;;;;;7.80;2.40;;;;;;;13.86;44.56;101800.72;5052938;28;20029;-66
2023/03/15 11:01:48;;;;;;;6.68;2.50;;;;;;;14.08;41.45;101816.91;5052744;28;20070;-65
2023/03/15 11:04:31;;;;;;;7.53;2.20;;;;;;;14.07;42.22;101812.47;5052762;28;20035;-65
2023/03/15 11:06:56;;;;;;;9.07;2.50;;;;;;;13.81;40.47;101818.38;5052640;28;20060;-65
2023/03/15 11:09:25;;;;;;;7.10;2.40;;;;;;;13.75;40.99;101811.22;5052605;28;20067;-65
2023/03/15 11:11:56;;;;;;;7.57;2.45;;;;;;;13.90;42.36;101807.84;5052956;28;20075;-65
2023/03/15 11:14:21;;;;;;;6.60;2.20;;;;;;;13.81;41.01;101813.06;5052782;28;20025;-65
2023/03/15 11:16:54;;;;;;;7.65;2.55;;;;;;;13.63;40.44;101820.78;5034457;28;20056;-64
2023/03/15 11:19:25;;;;;;;6.90;2.50;;;;;;;13.83;40.22;101819.25;5052661;28;20108;-65
2023/03/15 11:21:55;;;;;;;7.65;2.17;;;;;;;13.94;39.81;101828.28;5052761;28;20036;-64
2023/03/15 11:24:23;;;;;;;7.05;2.38;;;;;;;14.61;39.98;101824.63;5052934;28;20021;-65
2023/03/15 11:26:52;;;;;;;7.30;2.17;;;;;;;14.88;37.49;101831.97;5034723;28;20363;-65
2023/03/15 11:29:30;;;;;;;5.35;2.03;;;;;;;14.94;37.27;101832.00;5052838;28;20047;-64
2023/03/15 11:31:58;;;;;;;7.93;2.10;;;;;;;15.24;37.12;101831.38;5052749;28;20070;-64